Time;durP1;ratioP1;P1;durP2;ratioP2;P2;SDS_P1;SDS_P2;PMS_P1;PMS_P2;Temp;Humidity;BMP_temperature;BMP_pressure;BME280_temperature;BME280_humidity;BME280_pressure;Samples;Min_cycle;Max_cycle;Signal;HPM_P1;HPM_P2
2021/07/24 00:00:23;;;;;;;7.45;4.00;;;25.70;99.90;;;;;;5107655;28;20114;-87
2021/07/24 00:02:48;;;;;;;8.65;4.15;;;25.70;99.90;;;;;;5110723;28;20074;-87
2021/07/24 00:05:14;;;;;;;5.60;4.30;;;25.70;99.90;;;;;;5111458;28;20020;-87
2021/07/24 00:07:40;;;;;;;5.13;3.88;;;25.70;99.90;;;;;;5110878;28;20492;-88
2021/07/24 00:10:07;;;;;;;6.90;3.58;;;25.70;99.90;;;;;;5110881;28;20471;-87
2021/07/24 00:12:32;;;;;;;6.45;3.55;;;25.70;99.90;;;;;;5111555;28;20568;-88
2021/07/24 00:14:59;;;;;;;6.97;3.75;;;25.80;99.90;;;;;;5094053;28;20039;-87
2021/07/24 00:17:24;;;;;;;5.65;4.00;;;25.80;99.90;;;;;;5098799;28;20027;-87
2021/07/24 00:19:50;;;;;;;4.65;3.55;;;25.80;99.90;;;;;;5114691;28;20096;-87
2021/07/24 00:22:16;;;;;;;5.75;3.80;;;25.80;99.90;;;;;;5114637;28;20412;-87
2021/07/24 00:24:42;;;;;;;7.13;4.25;;;25.80;99.90;;;;;;5098546;28;20058;-87
2021/07/24 00:27:08;;;;;;;4.45;3.83;;;25.80;99.90;;;;;;5115640;28;20032;-87
2021/07/24 00:29:34;;;;;;;5.55;3.92;;;25.90;99.90;;;;;;5114057;28;20111;-87
2021/07/24 00:32:00;;;;;;;7.13;3.55;;;25.90;99.90;;;;;;5114147;28;20453;-87
2021/07/24 00:34:26;;;;;;;4.88;3.97;;;25.90;99.90;;;;;;5115213;28;20020;-87
2021/07/24 00:36:55;;;;;;;4.28;3.30;;;25.90;99.90;;;;;;5114424;28;20028;-87
2021/07/24 00:39:20;;;;;;;6.38;4.05;;;25.80;99.90;;;;;;5114663;28;20031;-87
2021/07/24 00:41:49;;;;;;;6.78;3.80;;;25.70;99.90;;;;;;5114229;28;20034;-87
2021/07/24 00:44:17;;;;;;;4.28;3.88;;;25.60;99.90;;;;;;5114699;28;20020;-87
2021/07/24 00:46:43;;;;;;;4.63;3.60;;;25.60;99.90;;;;;;5113733;28;20027;-87
2021/07/24 00:49:11;;;;;;;6.15;3.67;;;25.50;99.90;;;;;;5114081;28;20059;-87
2021/07/24 00:51:38;;;;;;;7.50;4.07;;;25.50;99.90;;;;;;5114724;28;20069;-87
2021/07/24 00:54:04;;;;;;;4.95;3.80;;;25.50;99.90;;;;;;5114547;28;20038;-87
2021/07/24 00:56:30;;;;;;;7.30;3.85;;;25.40;99.90;;;;;;5113863;28;20491;-87
2021/07/24 00:58:57;;;;;;;5.72;3.47;;;25.30;99.90;;;;;;5113414;28;20517;-87
2021/07/24 01:01:25;;;;;;;4.97;4.05;;;25.20;99.90;;;;;;5113945;28;20487;-87
2021/07/24 01:03:50;;;;;;;5.55;3.78;;;25.10;99.90;;;;;;5113886;28;20042;-87
2021/07/24 01:06:17;;;;;;;8.20;3.70;;;25.20;99.90;;;;;;5114399;28;20445;-87
2021/07/24 01:08:43;;;;;;;6.07;3.88;;;25.10;99.90;;;;;;5113493;28;20015;-88
2021/07/24 01:11:11;;;;;;;5.32;3.63;;;25.10;99.90;;;;;;5103152;28;20036;-87
2021/07/24 01:13:38;;;;;;;4.30;3.45;;;25.20;99.90;;;;;;5113170;28;20039;-88
2021/07/24 01:16:05;;;;;;;5.72;3.85;;;25.20;99.90;;;;;;5113362;28;20027;-87
2021/07/24 01:18:31;;;;;;;4.47;3.45;;;25.00;99.90;;;;;;5114424;28;20483;-87
2021/07/24 01:21:02;;;;;;;3.90;3.50;;;24.90;99.90;;;;;;5112616;28;20024;-87
2021/07/24 01:23:30;;;;;;;7.18;4.05;;;24.90;99.90;;;;;;5113756;28;20514;-87
2021/07/24 01:25:55;;;;;;;5.85;4.05;;;24.80;99.90;;;;;;5113466;28;20111;-87
2021/07/24 01:28:26;;;;;;;4.45;3.53;;;24.80;99.90;;;;;;5113035;28;20070;-87
2021/07/24 01:30:53;;;;;;;4.82;3.75;;;24.70;99.90;;;;;;5112313;28;20460;-87
2021/07/24 01:33:19;;;;;;;4.57;3.70;;;24.70;99.90;;;;;;5114021;28;20027;-87
2021/07/24 01:35:49;;;;;;;5.40;4.05;;;24.70;99.90;;;;;;5113073;28;20399;-87
2021/07/24 01:38:15;;;;;;;5.75;4.03;;;24.60;99.90;;;;;;5113019;28;20061;-87
2021/07/24 01:40:41;;;;;;;4.25;3.85;;;24.60;99.90;;;;;;5113667;28;20081;-87
2021/07/24 01:43:07;;;;;;;6.35;4.15;;;24.70;99.90;;;;;;5112748;28;20488;-87
2021/07/24 01:45:34;;;;;;;6.03;3.75;;;24.50;99.90;;;;;;5113128;28;20024;-87
2021/07/24 01:48:00;;;;;;;6.30;3.80;;;24.40;99.90;;;;;;5113874;28;20480;-87
2021/07/24 01:53:11;;;;;;;5.05;4.10;;;24.20;99.90;;;;;;5113495;28;20039;-87
2021/07/24 01:55:40;;;;;;;4.97;4.15;;;24.20;99.90;;;;;;5112666;28;20035;-87
2021/07/24 01:58:08;;;;;;;6.40;4.05;;;24.30;99.90;;;;;;5112471;28;20027;-87
2021/07/24 02:00:35;;;;;;;5.68;3.90;;;24.40;99.90;;;;;;5112956;28;20027;-87
2021/07/24 02:03:12;;;;;;;5.55;3.88;;;24.40;99.90;;;;;;5113503;28;20099;-87
2021/07/24 02:05:47;;;;;;;5.82;4.00;;;24.40;99.90;;;;;;5112512;28;20027;-87
2021/07/24 02:08:21;;;;;;;6.50;4.35;;;24.30;99.90;;;;;;5112366;28;20019;-87
2021/07/24 02:10:48;;;;;;;6.70;4.13;;;24.40;99.90;;;;;;5112687;28;20057;-87
2021/07/24 02:13:16;;;;;;;4.78;4.28;;;24.20;99.90;;;;;;5111973;28;20039;-87
2021/07/24 02:15:42;;;;;;;6.18;4.50;;;24.00;99.90;;;;;;5112485;28;20551;-87
2021/07/24 02:18:08;;;;;;;6.13;4.20;;;24.00;99.90;;;;;;5112899;28;20106;-87
2021/07/24 02:20:36;;;;;;;5.57;4.40;;;23.90;99.90;;;;;;5112159;28;20031;-87
2021/07/24 02:23:02;;;;;;;8.38;4.55;;;23.90;99.90;;;;;;5112706;28;20031;-88
2021/07/24 02:25:27;;;;;;;5.05;4.55;;;23.90;99.90;;;;;;5112427;28;20426;-87
2021/07/24 02:27:53;;;;;;;6.22;4.57;;;23.80;99.90;;;;;;5111684;28;20035;-87
2021/07/24 02:30:19;;;;;;;4.88;4.25;;;23.70;99.90;;;;;;5099364;28;20039;-87
2021/07/24 02:32:45;;;;;;;5.65;4.40;;;23.70;99.90;;;;;;5111958;28;20046;-86
2021/07/24 02:35:11;;;;;;;10.38;4.45;;;23.70;99.90;;;;;;5112126;28;20031;-87
2021/07/24 02:37:38;;;;;;;6.28;4.55;;;23.70;99.90;;;;;;5112420;28;20065;-87
2021/07/24 02:40:05;;;;;;;5.10;4.43;;;23.60;99.90;;;;;;5111665;28;20111;-87
2021/07/24 02:42:31;;;;;;;8.38;3.90;;;23.60;99.90;;;;;;5111912;28;20020;-87
2021/07/24 02:44:57;;;;;;;4.95;4.45;;;23.60;99.90;;;;;;5112196;28;20104;-87
2021/07/24 02:47:22;;;;;;;7.53;4.80;;;23.50;99.90;;;;;;5111756;28;20495;-87
2021/07/24 02:49:48;;;;;;;7.00;4.47;;;23.50;99.90;;;;;;5112098;28;20039;-86
2021/07/24 02:52:14;;;;;;;6.38;4.70;;;23.50;99.90;;;;;;5095427;28;20399;-87
2021/07/24 02:54:39;;;;;;;6.45;4.15;;;23.50;99.90;;;;;;5111911;28;20421;-87
2021/07/24 02:57:05;;;;;;;7.50;4.30;;;23.40;99.90;;;;;;5098165;28;20034;-87
2021/07/24 02:59:31;;;;;;;5.53;4.70;;;23.30;99.90;;;;;;5112119;28;20169;-87
2021/07/24 03:01:57;;;;;;;7.13;4.57;;;23.30;99.90;;;;;;5111785;28;20023;-87
2021/07/24 03:04:23;;;;;;;7.50;4.55;;;23.30;99.90;;;;;;5113394;27;20153;-87
2021/07/24 03:06:49;;;;;;;7.15;4.40;;;23.30;99.90;;;;;;5111703;28;20034;-87
2021/07/24 03:09:15;;;;;;;5.78;4.32;;;23.20;99.90;;;;;;5111913;28;20454;-86
2021/07/24 03:11:41;;;;;;;7.03;4.40;;;23.20;99.90;;;;;;5111249;28;20042;-87
2021/07/24 03:14:07;;;;;;;6.35;4.30;;;23.20;99.90;;;;;;5111610;28;20035;-87
2021/07/24 03:16:33;;;;;;;6.05;4.28;;;23.20;99.90;;;;;;5111982;28;20020;-87
2021/07/24 03:18:59;;;;;;;5.88;4.07;;;23.30;99.90;;;;;;5111695;28;20507;-87
2021/07/24 03:21:24;;;;;;;5.53;4.05;;;23.30;99.90;;;;;;5112083;28;20044;-87
2021/07/24 03:23:50;;;;;;;6.63;3.95;;;23.20;99.90;;;;;;5111287;28;20406;-87
2021/07/24 03:26:17;;;;;;;4.78;3.53;;;23.20;99.90;;;;;;5111371;28;20031;-87
2021/07/24 03:28:43;;;;;;;5.25;3.63;;;23.20;99.90;;;;;;5111738;28;20054;-87
2021/07/24 03:31:09;;;;;;;4.18;3.55;;;23.20;99.90;;;;;;5111616;28;20055;-87
2021/07/24 03:33:34;;;;;;;7.03;4.35;;;23.10;99.90;;;;;;5111396;28;20023;-87
2021/07/24 03:36:00;;;;;;;5.68;3.90;;;23.20;99.90;;;;;;5111789;28;20107;-87
2021/07/24 03:38:27;;;;;;;4.93;4.43;;;23.20;99.90;;;;;;5111418;28;20020;-87
2021/07/24 03:40:53;;;;;;;6.15;4.53;;;23.20;99.90;;;;;;5110889;28;20024;-87
2021/07/24 03:43:19;;;;;;;5.75;4.40;;;23.10;99.90;;;;;;5111693;28;20023;-87
2021/07/24 03:45:44;;;;;;;5.57;4.63;;;23.00;99.90;;;;;;5111052;28;20404;-87
2021/07/24 03:48:10;;;;;;;6.05;4.57;;;22.90;99.90;;;;;;5112293;28;20031;-86
2021/07/24 03:50:36;;;;;;;7.15;5.00;;;22.90;99.90;;;;;;5111490;28;20054;-87
2021/07/24 03:53:02;;;;;;;9.00;4.53;;;22.70;99.90;;;;;;5112689;28;20099;-87
2021/07/24 03:55:28;;;;;;;5.63;4.15;;;22.90;99.90;;;;;;5114693;28;20034;-87
2021/07/24 03:57:56;;;;;;;4.95;4.38;;;22.90;99.90;;;;;;5096342;28;20514;-87
2021/07/24 04:00:23;;;;;;;5.78;4.40;;;23.00;99.90;;;;;;5115923;28;20024;-86
2021/07/24 04:02:49;;;;;;;8.98;4.45;;;23.10;99.90;;;;;;5114785;28;20034;-87
2021/07/24 04:05:15;;;;;;;7.90;4.47;;;23.10;99.90;;;;;;5115397;28;20038;-86
2021/07/24 04:07:42;;;;;;;5.95;4.28;;;23.10;99.90;;;;;;5114459;28;20027;-87
2021/07/24 04:10:09;;;;;;;5.25;3.92;;;23.30;99.90;;;;;;5114294;28;20499;-87
2021/07/24 04:12:36;;;;;;;5.47;3.90;;;23.40;99.90;;;;;;5098437;28;20043;-87
2021/07/24 04:15:04;;;;;;;4.53;3.95;;;23.40;99.90;;;;;;5113850;28;20040;-86
2021/07/24 04:17:30;;;;;;;4.35;3.53;;;23.60;99.90;;;;;;5113583;28;20080;-87
2021/07/24 04:19:56;;;;;;;6.03;3.70;;;23.60;99.90;;;;;;5113478;28;20023;-87
2021/07/24 04:22:22;;;;;;;5.85;3.97;;;23.60;99.90;;;;;;5113368;28;20047;-87
2021/07/24 04:24:48;;;;;;;5.45;3.83;;;23.70;99.90;;;;;;5113136;28;20077;-86
2021/07/24 04:27:14;;;;;;;5.05;3.63;;;23.70;99.90;;;;;;5114353;28;20029;-87
2021/07/24 04:29:39;;;;;;;4.70;3.42;;;23.70;99.90;;;;;;5100702;28;20031;-87
2021/07/24 04:32:06;;;;;;;4.13;3.60;;;23.80;99.90;;;;;;5100649;28;20073;-86
2021/07/24 04:34:31;;;;;;;5.32;3.75;;;23.90;99.90;;;;;;5113472;28;20015;-87
2021/07/24 04:36:57;;;;;;;4.53;3.92;;;23.80;99.90;;;;;;5113150;28;20031;-87
2021/07/24 04:39:23;;;;;;;4.10;3.55;;;23.70;99.90;;;;;;5113371;28;20483;-86
2021/07/24 04:41:49;;;;;;;4.55;3.75;;;23.70;99.90;;;;;;5113350;28;20114;-87
2021/07/24 04:44:15;;;;;;;5.80;5.07;;;23.70;99.90;;;;;;5113460;28;20028;-86
2021/07/24 04:46:40;;;;;;;4.65;3.75;;;23.70;99.90;;;;;;5113154;28;20399;-87
2021/07/24 04:49:06;;;;;;;6.03;3.95;;;23.70;99.90;;;;;;5112978;28;20012;-86
2021/07/24 04:51:36;;;;;;;4.55;3.92;;;23.50;99.90;;;;;;5113469;28;20084;-87
2021/07/24 04:54:08;;;;;;;6.05;4.03;;;23.40;99.90;;;;;;5115342;28;20514;-87
2021/07/24 04:56:34;;;;;;;5.47;4.07;;;23.50;99.90;;;;;;5112842;28;20055;-87
2021/07/24 04:59:05;;;;;;;7.30;4.75;;;23.50;99.90;;;;;;5112608;28;20518;-87
2021/07/24 05:01:31;;;;;;;7.00;4.03;;;23.60;99.90;;;;;;5112942;28;20019;-87
2021/07/24 05:03:57;;;;;;;6.57;3.85;;;23.70;99.90;;;;;;5113152;28;20020;-87
2021/07/24 05:06:23;;;;;;;5.07;3.88;;;23.60;99.90;;;;;;5108764;28;20035;-86
2021/07/24 05:08:49;;;;;;;7.00;3.72;;;23.70;99.90;;;;;;5112114;28;20016;-87
2021/07/24 05:11:15;;;;;;;5.25;4.00;;;23.70;99.90;;;;;;5100310;28;20039;-87
2021/07/24 05:13:40;;;;;;;5.78;3.65;;;23.60;99.90;;;;;;5068486;28;1249232;-86
2021/07/24 05:16:06;;;;;;;4.30;3.90;;;23.70;99.90;;;;;;5114084;28;20027;-87
2021/07/24 05:18:32;;;;;;;5.75;4.35;;;23.80;99.90;;;;;;5114128;28;20111;-86
2021/07/24 05:20:57;;;;;;;5.20;4.70;;;23.90;99.90;;;;;;5113661;28;20036;-87
2021/07/24 05:23:24;;;;;;;5.65;4.10;;;23.80;99.90;;;;;;5112934;28;20023;-87
2021/07/24 05:25:50;;;;;;;4.72;4.10;;;23.90;99.90;;;;;;5114135;28;20047;-87
2021/07/24 05:28:15;;;;;;;4.60;4.20;;;23.90;99.90;;;;;;5113456;28;20028;-86
2021/07/24 05:30:41;;;;;;;7.63;4.70;;;24.00;99.90;;;;;;5113662;28;20038;-87
2021/07/24 05:33:07;;;;;;;6.53;4.38;;;24.00;99.90;;;;;;5111956;28;20032;-87
2021/07/24 05:35:33;;;;;;;4.97;4.05;;;24.10;99.90;;;;;;5112962;28;20028;-87
2021/07/24 05:37:59;;;;;;;4.93;4.43;;;24.00;99.90;;;;;;5112485;28;20275;-87
2021/07/24 05:40:25;;;;;;;6.88;4.53;;;24.10;99.90;;;;;;5113177;28;20035;-87
2021/07/24 05:42:50;;;;;;;5.05;4.20;;;23.90;99.90;;;;;;5113055;28;20023;-87
2021/07/24 05:45:16;;;;;;;7.65;4.38;;;23.80;99.90;;;;;;5114137;28;20094;-86
2021/07/24 05:47:41;;;;;;;6.03;4.45;;;23.90;99.90;;;;;;5113060;28;20111;-87
2021/07/24 05:50:08;;;;;;;7.57;4.25;;;24.00;99.90;;;;;;5112671;28;20035;-87
2021/07/24 05:52:33;;;;;;;6.38;4.25;;;24.10;99.90;;;;;;5112526;28;20019;-87
2021/07/24 05:54:59;;;;;;;4.70;4.10;;;24.20;99.90;;;;;;5112812;28;20526;-87
2021/07/24 05:57:24;;;;;;;8.65;4.60;;;24.30;99.90;;;;;;5113339;28;20443;-87
2021/07/24 05:59:50;;;;;;;5.30;4.45;;;24.30;99.90;;;;;;5112716;28;20027;-86
2021/07/24 06:02:16;;;;;;;5.70;3.97;;;24.50;99.90;;;;;;5112092;28;20046;-85
2021/07/24 06:04:42;;;;;;;5.95;4.43;;;24.60;99.90;;;;;;5113556;28;20016;-86
2021/07/24 06:07:08;;;;;;;8.25;4.05;;;24.60;99.90;;;;;;5112199;28;20032;-86
2021/07/24 06:09:34;;;;;;;6.72;4.70;;;24.50;99.90;;;;;;5112290;28;20023;-86
2021/07/24 06:12:00;;;;;;;6.03;4.53;;;24.50;99.90;;;;;;5112138;28;20039;-86
2021/07/24 06:14:26;;;;;;;6.90;4.68;;;24.40;99.90;;;;;;5112363;28;20043;-86
2021/07/24 06:16:52;;;;;;;6.93;4.75;;;24.50;99.90;;;;;;5111918;28;20083;-85
2021/07/24 06:19:18;;;;;;;5.25;4.30;;;24.40;99.90;;;;;;5095068;28;21508;-87
2021/07/24 06:21:44;;;;;;;5.10;4.25;;;24.30;99.90;;;;;;5113296;28;20052;-91
2021/07/24 06:24:10;;;;;;;5.60;4.60;;;24.40;99.90;;;;;;5113439;28;20024;-90
2021/07/24 06:26:37;;;;;;;6.70;4.57;;;24.40;99.90;;;;;;5100414;28;20395;-88
2021/07/24 06:29:03;;;;;;;7.32;4.70;;;24.50;99.90;;;;;;5115450;28;20019;-86
2021/07/24 06:31:29;;;;;;;5.90;4.65;;;24.50;99.90;;;;;;5112685;28;20030;-89
2021/07/24 06:33:55;;;;;;;6.57;4.80;;;24.60;99.90;;;;;;5112582;28;20031;-88
2021/07/24 06:36:20;;;;;;;6.35;5.15;;;24.60;99.90;;;;;;5112899;28;20391;-88
2021/07/24 06:38:46;;;;;;;5.85;4.60;;;24.70;99.90;;;;;;5112061;28;20522;-88
2021/07/24 06:41:11;;;;;;;6.63;4.60;;;24.70;99.90;;;;;;5111961;28;20387;-88
2021/07/24 06:43:37;;;;;;;4.53;4.10;;;24.60;99.90;;;;;;5112332;28;20023;-87
2021/07/24 06:46:13;;;;;;;5.90;4.85;;;24.70;99.90;;;;;;5112407;28;20106;-87
2021/07/24 06:48:39;;;;;;;5.32;4.47;;;24.70;99.90;;;;;;5110992;28;20043;-85
2021/07/24 06:51:08;;;;;;;5.22;4.72;;;24.80;99.90;;;;;;5112441;28;20483;-88
2021/07/24 06:53:35;;;;;;;5.63;4.70;;;24.80;99.90;;;;;;5112412;28;20522;-88
2021/07/24 06:56:03;;;;;;;6.53;4.22;;;24.90;99.90;;;;;;5111685;28;20054;-84
2021/07/24 06:58:29;;;;;;;7.05;4.55;;;25.00;99.90;;;;;;5111928;28;20016;-85
2021/07/24 07:00:55;;;;;;;6.78;4.45;;;24.90;99.90;;;;;;5111161;28;20046;-82
2021/07/24 07:03:21;;;;;;;6.82;4.72;;;25.10;99.90;;;;;;5111722;28;20030;-82
2021/07/24 07:05:48;;;;;;;5.53;4.30;;;25.20;99.90;;;;;;5111582;28;20032;-83
2021/07/24 07:08:14;;;;;;;7.85;4.30;;;25.30;99.90;;;;;;5111486;28;20062;-84
2021/07/24 07:10:39;;;;;;;6.55;4.53;;;25.40;99.90;;;;;;5111559;28;20421;-84
2021/07/24 07:13:05;;;;;;;5.28;4.50;;;25.60;99.90;;;;;;5111992;28;20043;-83
2021/07/24 07:15:31;;;;;;;6.55;5.00;;;25.80;99.90;;;;;;5096535;28;20365;-84
2021/07/24 07:17:56;;;;;;;5.05;4.55;;;25.90;99.90;;;;;;5111544;28;20043;-84
2021/07/24 07:20:22;;;;;;;5.32;4.60;;;26.00;99.90;;;;;;5111284;28;20032;-84
2021/07/24 07:22:48;;;;;;;6.55;4.40;;;26.20;99.90;;;;;;5112084;28;20027;-82
2021/07/24 07:25:14;;;;;;;5.45;4.70;;;26.30;99.90;;;;;;5111444;28;20434;-83
2021/07/24 07:27:41;;;;;;;5.45;4.10;;;26.30;99.90;;;;;;5112692;28;20106;-82
2021/07/24 07:30:08;;;;;;;6.05;4.70;;;26.40;99.90;;;;;;5115885;28;20489;-84
2021/07/24 07:32:34;;;;;;;6.20;4.80;;;26.50;99.90;;;;;;5115193;28;20101;-84
2021/07/24 07:34:59;;;;;;;8.57;4.97;;;26.50;99.90;;;;;;5116002;28;20053;-84
2021/07/24 07:37:25;;;;;;;4.63;4.18;;;26.70;99.90;;;;;;5115386;28;20034;-84
2021/07/24 07:39:51;;;;;;;4.63;4.22;;;26.70;99.90;;;;;;5115041;28;20554;-84
2021/07/24 07:42:16;;;;;;;5.43;4.93;;;26.90;99.90;;;;;;5115923;28;20104;-84
2021/07/24 07:44:42;;;;;;;8.20;4.90;;;27.00;99.90;;;;;;5114844;28;20469;-84
2021/07/24 07:47:08;;;;;;;8.05;4.93;;;27.40;99.90;;;;;;5102518;28;20088;-84
2021/07/24 07:49:33;;;;;;;7.75;4.82;;;27.40;99.90;;;;;;5115254;28;20031;-84
2021/07/24 07:51:59;;;;;;;5.35;4.85;;;27.40;99.90;;;;;;5115057;28;20486;-85
2021/07/24 07:54:25;;;;;;;7.07;5.22;;;27.50;99.90;;;;;;5115616;28;20020;-85
2021/07/24 07:56:50;;;;;;;9.27;4.70;;;27.60;99.90;;;;;;5115370;28;20446;-84
2021/07/24 07:59:16;;;;;;;6.15;4.68;;;27.20;99.90;;;;;;5114546;28;20051;-85
2021/07/24 08:01:41;;;;;;;5.95;4.97;;;27.50;99.90;;;;;;5114573;28;20089;-85
2021/07/24 08:04:07;;;;;;;6.50;4.70;;;27.80;99.90;;;;;;5098002;28;20026;-85
2021/07/24 08:06:33;;;;;;;8.50;4.90;;;27.50;99.90;;;;;;5115131;28;20479;-84
2021/07/24 08:08:58;;;;;;;7.75;5.18;;;27.40;99.90;;;;;;5114769;28;20023;-84
2021/07/24 08:11:25;;;;;;;7.80;5.03;;;27.50;99.90;;;;;;5114983;28;20035;-83
2021/07/24 08:13:54;;;;;;;5.93;5.10;;;27.50;99.90;;;;;;5114663;28;20224;-85
2021/07/24 08:16:20;;;;;;;5.28;4.60;;;27.40;99.90;;;;;;5114237;28;20040;-84
2021/07/24 08:18:46;;;;;;;8.15;5.20;;;27.30;99.90;;;;;;5114324;28;20070;-84
2021/07/24 08:21:11;;;;;;;6.75;5.47;;;27.40;99.90;;;;;;5115040;28;20023;-84
2021/07/24 08:23:37;;;;;;;5.13;4.53;;;27.70;99.90;;;;;;5114730;28;20411;-84
2021/07/24 08:26:02;;;;;;;6.65;4.80;;;27.70;99.90;;;;;;5114161;28;20028;-85
2021/07/24 08:28:29;;;;;;;8.50;5.35;;;27.60;99.90;;;;;;5114662;28;20024;-84
2021/07/24 08:30:55;;;;;;;8.50;5.20;;;27.90;99.90;;;;;;5113676;28;20122;-85
2021/07/24 08:33:20;;;;;;;5.93;4.90;;;28.00;99.90;;;;;;5115132;28;20464;-84
2021/07/24 08:35:47;;;;;;;5.57;4.80;;;27.80;99.90;;;;;;5114023;28;20028;-84
2021/07/24 08:38:12;;;;;;;6.72;4.90;;;28.00;99.90;;;;;;5113584;28;20476;-84
2021/07/24 08:40:38;;;;;;;6.63;5.13;;;28.00;99.90;;;;;;5113874;28;20027;-85
2021/07/24 08:43:07;;;;;;;5.57;4.70;;;28.00;99.90;;;;;;5114157;28;20024;-85
2021/07/24 08:45:34;;;;;;;6.55;4.95;;;28.20;99.90;;;;;;5114286;28;20053;-85
2021/07/24 08:48:02;;;;;;;7.18;5.32;;;28.40;99.90;;;;;;5113211;28;20015;-85
2021/07/24 08:50:28;;;;;;;5.25;4.75;;;28.60;99.90;;;;;;5114319;27;20139;-85
2021/07/24 08:52:55;;;;;;;6.68;4.90;;;28.40;99.90;;;;;;5113607;28;20535;-84
2021/07/24 08:55:22;;;;;;;7.22;5.28;;;28.40;99.90;;;;;;5113818;28;20024;-84
2021/07/24 08:57:50;;;;;;;5.90;4.90;;;28.70;99.90;;;;;;5113565;28;20530;-84
2021/07/24 09:00:18;;;;;;;7.18;5.30;;;29.20;99.90;;;;;;5114446;28;20031;-84
2021/07/24 09:02:45;;;;;;;6.78;5.35;;;29.40;99.90;;;;;;5113433;28;20051;-84
2021/07/24 09:05:14;;;;;;;7.93;5.13;;;29.40;99.90;;;;;;5113982;28;20023;-85
2021/07/24 09:07:44;;;;;;;6.97;5.20;;;29.00;99.90;;;;;;5113443;28;20463;-85
2021/07/24 09:10:11;;;;;;;5.88;5.15;;;29.20;99.90;;;;;;5113539;28;20038;-85
2021/07/24 09:12:40;;;;;;;5.63;5.00;;;29.40;99.90;;;;;;5113228;28;20492;-84
2021/07/24 09:15:07;;;;;;;7.78;5.50;;;29.60;99.90;;;;;;5113517;28;20042;-85
2021/07/24 09:17:33;;;;;;;7.65;5.78;;;29.20;99.90;;;;;;5113239;28;20020;-85
2021/07/24 09:19:59;;;;;;;6.18;5.13;;;28.90;99.90;;;;;;5113161;28;20492;-85
2021/07/24 09:22:39;;;;;;;6.07;4.90;;;29.00;99.90;;;;;;5113835;28;20421;-85
2021/07/24 09:25:12;;;;;;;7.40;5.55;;;29.20;99.90;;;;;;5098245;28;20403;-84
2021/07/24 09:27:52;;;;;;;6.07;5.35;;;29.10;99.90;;;;;;5113374;28;20023;-85
2021/07/24 09:30:24;;;;;;;5.57;5.07;;;29.00;99.90;;;;;;5112901;28;20038;-85
2021/07/24 09:33:02;;;;;;;5.88;5.32;;;28.80;99.90;;;;;;5112866;28;20051;-85
2021/07/24 09:35:38;;;;;;;8.98;4.82;;;29.00;99.90;;;;;;5112830;28;20376;-85
2021/07/24 09:38:27;;;;;;;7.30;4.95;;;29.20;99.90;;;;;;5112712;28;20027;-86
2021/07/24 09:40:54;;;;;;;6.30;5.47;;;29.60;99.90;;;;;;5100734;28;21379;-90
2021/07/24 09:43:29;;;;;;;8.23;5.10;;;29.70;99.90;;;;;;5114027;27;20027;-85
2021/07/24 09:46:19;;;;;;;6.57;5.00;;;29.90;99.90;;;;;;5102785;27;20031;-86
2021/07/24 09:48:47;;;;;;;5.78;5.07;;;30.00;99.90;;;;;;5113651;27;20024;-88
2021/07/24 09:51:13;;;;;;;6.90;5.00;;;29.60;99.90;;;;;;5115734;27;20027;-87
2021/07/24 09:53:44;;;;;;;5.45;4.90;;;29.80;99.90;;;;;;5116152;27;20456;-90
2021/07/24 09:56:19;;;;;;;5.55;4.95;;;30.00;99.90;;;;;;5113881;27;20526;-90
2021/07/24 09:58:46;;;;;;;8.38;5.28;;;29.60;99.90;;;;;;5092437;28;20618;-89
2021/07/24 10:01:18;;;;;;;8.88;5.25;;;30.00;99.90;;;;;;5113194;27;20036;-89
2021/07/24 10:03:50;;;;;;;6.78;4.93;;;30.20;99.90;;;;;;5110069;27;20027;-88
2021/07/24 10:06:16;;;;;;;6.13;5.22;;;30.10;99.90;;;;;;5117196;27;20480;-87
2021/07/24 10:08:47;;;;;;;6.80;4.78;;;30.10;99.90;;;;;;5107689;28;20035;-89
2021/07/24 10:11:13;;;;;;;6.43;4.70;;;30.40;99.90;;;;;;5096925;28;20530;-88
2021/07/24 10:13:40;;;;;;;7.88;5.18;;;30.20;99.90;;;;;;5114953;27;20070;-88
2021/07/24 10:16:06;;;;;;;6.55;4.90;;;29.80;99.90;;;;;;5110627;28;20024;-88
2021/07/24 10:18:32;;;;;;;5.20;4.70;;;29.70;99.90;;;;;;5116566;27;20631;-89
2021/07/24 10:20:58;;;;;;;5.13;4.55;;;30.10;99.90;;;;;;5114583;27;20050;-88
2021/07/24 10:23:24;;;;;;;6.05;4.90;;;29.90;99.90;;;;;;5117866;27;20027;-86
2021/07/24 10:26:20;;;;;;;5.75;4.82;;;29.70;99.90;;;;;;5118489;27;20031;-86
2021/07/24 10:29:09;;;;;;;5.05;4.35;;;29.80;99.90;;;;;;5115000;27;20026;-87
2021/07/24 10:31:49;;;;;;;6.07;4.75;;;30.20;99.90;;;;;;5111989;27;20441;-86
2021/07/24 10:34:21;;;;;;;5.78;4.82;;;30.10;99.90;;;;;;5111848;27;20027;-85
2021/07/24 10:36:47;;;;;;;5.75;4.28;;;29.70;99.90;;;;;;5110432;27;20023;-86
2021/07/24 10:39:16;;;;;;;5.07;4.57;;;29.80;99.90;;;;;;5098138;28;20039;-84
2021/07/24 10:41:52;;;;;;;5.10;4.60;;;29.60;99.90;;;;;;5117706;27;20027;-84
2021/07/24 10:44:29;;;;;;;6.80;4.40;;;29.50;99.90;;;;;;5111959;27;20080;-84
2021/07/24 10:47:07;;;;;;;7.00;4.90;;;29.50;99.90;;;;;;5113483;27;20084;-86
2021/07/24 10:49:35;;;;;;;4.97;4.57;;;29.80;99.90;;;;;;5126735;27;20041;-86
2021/07/24 10:52:02;;;;;;;5.75;4.95;;;30.20;99.90;;;;;;5107352;28;20024;-82
2021/07/24 10:54:28;;;;;;;5.85;4.43;;;30.40;99.90;;;;;;5116909;27;20441;-84
2021/07/24 10:56:54;;;;;;;5.18;4.45;;;30.10;99.90;;;;;;5108604;28;20038;-83
2021/07/24 10:59:24;;;;;;;6.90;4.50;;;30.30;99.90;;;;;;5114871;27;20024;-84
2021/07/24 11:01:51;;;;;;;6.43;4.25;;;30.30;99.90;;;;;;5110619;27;20046;-84
2021/07/24 11:04:38;;;;;;;5.07;4.63;;;30.70;99.90;;;;;;5112530;27;20027;-84
2021/07/24 11:07:15;;;;;;;7.07;4.80;;;30.90;99.90;;;;;;5106888;28;20495;-84
2021/07/24 11:09:45;;;;;;;5.72;4.50;;;30.90;99.90;;;;;;5112505;28;20888;-86
2021/07/24 11:12:11;;;;;;;5.45;4.82;;;30.70;99.90;;;;;;5104991;28;20028;-84
2021/07/24 11:14:37;;;;;;;5.53;5.03;;;30.90;99.90;;;;;;5107829;28;20024;-85
2021/07/24 11:17:06;;;;;;;4.72;4.18;;;31.10;99.90;;;;;;5104431;28;20019;-86
2021/07/24 11:19:41;;;;;;;5.05;4.55;;;31.30;99.90;;;;;;5105646;28;20028;-86
2021/07/24 11:22:19;;;;;;;7.13;4.90;;;30.80;99.90;;;;;;5088898;28;20534;-86
2021/07/24 11:25:05;;;;;;;5.72;4.90;;;31.10;99.90;;;;;;5109614;28;20491;-84
2021/07/24 11:27:33;;;;;;;6.53;5.50;;;30.90;99.90;;;;;;5095583;28;20032;-85
2021/07/24 11:30:05;;;;;;;5.28;4.78;;;30.90;99.90;;;;;;5106697;28;20065;-86
2021/07/24 11:32:38;;;;;;;6.18;5.28;;;31.30;99.90;;;;;;5104534;28;20043;-85
2021/07/24 11:35:07;;;;;;;6.63;4.75;;;32.00;99.90;;;;;;5105871;28;20045;-85
2021/07/24 11:37:37;;;;;;;6.68;5.10;;;32.40;99.90;;;;;;5084389;28;20028;-85
2021/07/24 11:40:07;;;;;;;5.30;4.75;;;33.30;99.90;;;;;;5106022;28;20023;-82
2021/07/24 11:42:33;;;;;;;5.53;5.00;;;34.30;99.90;;;;;;5111654;28;20103;-84
2021/07/24 11:44:59;;;;;;;5.70;5.00;;;36.20;99.90;;;;;;5107982;28;20106;-84
2021/07/24 11:47:25;;;;;;;8.85;5.03;;;38.50;99.90;;;;;;5102341;28;20142;-83
2021/07/24 11:49:50;;;;;;;7.00;5.03;;;40.00;99.90;;;;;;5102650;28;20032;-84
2021/07/24 11:52:22;;;;;;;8.02;4.47;;;41.00;99.90;;;;;;5106350;28;20052;-85
2021/07/24 11:54:50;;;;;;;5.60;5.00;;;39.20;99.90;;;;;;5105935;28;20105;-85
2021/07/24 11:57:27;;;;;;;5.20;4.68;;;40.80;99.90;;;;;;5103837;28;20043;-84
2021/07/24 11:59:53;;;;;;;5.97;4.72;;;42.50;99.90;;;;;;5103339;28;20383;-83
2021/07/24 12:02:19;;;;;;;5.47;4.80;;;42.40;99.90;;;;;;5102637;28;20031;-84
2021/07/24 12:04:49;;;;;;;6.25;4.53;;;43.00;99.90;;;;;;5088467;28;20526;-84
2021/07/24 12:07:17;;;;;;;5.22;4.60;;;44.00;99.90;;;;;;5107039;28;20063;-84
2021/07/24 12:09:43;;;;;;;5.65;4.18;;;43.90;99.90;;;;;;5103654;28;20031;-84
2021/07/24 12:12:10;;;;;;;6.38;4.80;;;43.10;99.90;;;;;;5084403;28;20556;-84
2021/07/24 12:14:35;;;;;;;6.22;4.75;;;43.00;99.90;;;;;;5102373;28;20077;-85
2021/07/24 12:17:11;;;;;;;4.75;4.13;;;41.10;99.90;;;;;;5105334;28;20051;-85
2021/07/24 12:19:42;;;;;;;4.97;4.18;;;42.90;99.90;;;;;;5110908;28;20019;-85
2021/07/24 12:22:18;;;;;;;6.88;4.00;;;43.20;99.90;;;;;;5110797;27;20028;-85
2021/07/24 12:24:45;;;;;;;7.40;4.63;;;42.20;99.90;;;;;;5129804;27;20019;-85
2021/07/24 12:27:14;;;;;;;5.18;4.45;;;38.40;99.90;;;;;;5116249;27;20020;-85
2021/07/24 12:29:46;;;;;;;4.95;4.43;;;36.20;99.90;;;;;;5115571;27;20027;-84
2021/07/24 12:32:12;;;;;;;5.50;4.25;;;37.10;99.90;;;;;;5117540;27;20110;-85
2021/07/24 12:34:38;;;;;;;5.05;4.47;;;39.60;99.90;;;;;;5116363;27;20114;-85
2021/07/24 12:37:04;;;;;;;6.18;4.60;;;38.20;99.90;;;;;;5110409;27;20421;-85
2021/07/24 12:39:34;;;;;;;5.97;4.05;;;37.50;99.90;;;;;;5119564;27;20471;-84
2021/07/24 12:42:08;;;;;;;7.68;4.35;;;37.20;99.90;;;;;;5115550;27;20072;-85
2021/07/24 12:44:52;;;;;;;7.05;4.60;;;38.40;99.90;;;;;;5108908;28;20023;-85
2021/07/24 12:47:19;;;;;;;6.88;4.50;;;40.90;99.90;;;;;;5104935;27;20051;-84
2021/07/24 12:49:47;;;;;;;4.80;4.10;;;39.90;99.90;;;;;;5113638;27;20524;-85